createdAt,value
2018-12-14T00:01:06.827Z,28.77
2018-12-14T00:03:34.907Z,26.57
2018-12-14T00:06:03.361Z,26.30
2018-12-14T00:08:31.584Z,26.20
2018-12-14T00:11:05.957Z,25.93
2018-12-14T00:13:34.072Z,22.73
2018-12-14T00:16:02.272Z,26.27
2018-12-14T00:18:30.624Z,25.93
2018-12-14T00:20:58.733Z,25.53
2018-12-14T00:23:26.855Z,26.87
2018-12-14T00:25:54.997Z,27.30
2018-12-14T00:28:23.083Z,27.33
2018-12-14T00:30:51.201Z,27.70
2018-12-14T00:33:20.350Z,29.80
2018-12-14T00:35:49.013Z,28.07
2018-12-14T00:38:17.158Z,31.57
2018-12-14T00:40:45.661Z,27.80
2018-12-14T00:43:13.851Z,27.60
2018-12-14T00:45:41.967Z,28.67
2018-12-14T00:48:10.113Z,27.23
2018-12-14T00:50:38.424Z,29.47
2018-12-14T00:53:06.560Z,29.63
2018-12-14T00:55:35.213Z,27.97
2018-12-14T00:58:03.323Z,27.90
2018-12-14T01:00:31.548Z,32.07
2018-12-14T01:03:00.024Z,30.90
2018-12-14T01:05:28.253Z,31.37
2018-12-14T01:07:56.746Z,31.40
2018-12-14T01:10:25.699Z,30.87
2018-12-14T01:12:53.793Z,33.10
2018-12-14T01:15:21.920Z,31.40
2018-12-14T01:17:50.342Z,35.23
2018-12-14T01:20:18.841Z,32.57
2018-12-14T01:22:47.834Z,31.47
2018-12-14T01:25:17.383Z,31.67
2018-12-14T01:27:45.807Z,33.37
2018-12-14T01:30:13.937Z,36.60
2018-12-14T01:32:42.144Z,33.70
2018-12-14T01:35:10.232Z,33.37
2018-12-14T01:37:38.352Z,31.00
2018-12-14T01:40:07.352Z,35.33
2018-12-14T01:42:35.521Z,33.93
2018-12-14T01:45:03.989Z,33.50
2018-12-14T01:47:32.424Z,34.67
2018-12-14T01:50:00.625Z,33.23
2018-12-14T01:52:28.911Z,36.60
2018-12-14T01:54:57.170Z,35.13
2018-12-14T01:57:25.738Z,35.43
2018-12-14T01:59:53.840Z,34.83
2018-12-14T02:02:22.290Z,33.73
2018-12-14T02:04:50.746Z,37.80
2018-12-14T02:07:18.927Z,36.20
2018-12-14T02:09:47.287Z,38.70
2018-12-14T02:12:15.388Z,38.10
2018-12-14T02:14:43.521Z,34.47
2018-12-14T02:17:12.014Z,36.37
2018-12-14T02:19:40.301Z,36.47
2018-12-14T02:22:08.426Z,35.33
2018-12-14T02:24:36.944Z,39.40
2018-12-14T02:27:05.289Z,37.90
2018-12-14T02:29:41.289Z,37.43
2018-12-14T02:32:09.442Z,38.43
2018-12-14T02:34:38.155Z,39.20
2018-12-14T02:37:06.733Z,38.17
2018-12-14T02:39:34.837Z,36.00
2018-12-14T02:42:02.970Z,36.80
2018-12-14T02:44:31.240Z,39.53
2018-12-14T02:46:59.321Z,36.67
2018-12-14T02:49:27.546Z,38.57
2018-12-14T02:51:56.072Z,40.47
2018-12-14T02:54:24.209Z,39.77
2018-12-14T02:56:52.330Z,42.63
2018-12-14T02:59:21.215Z,37.60
2018-12-14T03:01:49.365Z,39.00
2018-12-14T03:04:17.497Z,39.90
2018-12-14T03:06:45.628Z,41.97
2018-12-14T03:09:13.721Z,41.67
2018-12-14T03:11:41.923Z,40.73
2018-12-14T03:14:10.456Z,40.13
2018-12-14T03:16:38.662Z,43.73
2018-12-14T03:19:06.871Z,43.80
2018-12-14T03:21:35.392Z,41.10
2018-12-14T03:24:03.539Z,43.37
2018-12-14T03:26:31.627Z,43.93
2018-12-14T03:29:00.279Z,42.23
2018-12-14T03:31:28.418Z,39.67
2018-12-14T03:33:56.645Z,40.97
2018-12-14T03:36:24.947Z,44.57
2018-12-14T03:38:53.964Z,45.70
2018-12-14T03:41:22.153Z,45.73
2018-12-14T03:43:50.525Z,39.43
2018-12-14T03:46:18.621Z,45.57
2018-12-14T03:48:46.713Z,42.40
2018-12-14T03:51:15.188Z,43.50
2018-12-14T03:53:43.329Z,42.27
2018-12-14T03:56:11.461Z,45.57
2018-12-14T03:58:39.920Z,46.40
2018-12-14T04:01:08.049Z,46.17
2018-12-14T04:03:36.111Z,46.73
2018-12-14T04:06:04.263Z,42.20
2018-12-14T04:08:32.349Z,42.47
2018-12-14T04:11:00.530Z,45.43
2018-12-14T04:13:29.100Z,44.77
2018-12-14T04:15:57.158Z,42.33
2018-12-14T04:18:25.309Z,47.93
2018-12-14T04:20:53.803Z,45.47
2018-12-14T04:23:21.888Z,48.00
2018-12-14T04:25:49.934Z,45.77
2018-12-14T04:28:18.024Z,45.20
2018-12-14T04:30:46.057Z,44.80
2018-12-14T04:33:14.891Z,46.40
2018-12-14T04:35:43.417Z,47.23
2018-12-14T04:38:11.691Z,45.73
2018-12-14T04:40:39.812Z,43.33
2018-12-14T04:43:08.914Z,43.10
2018-12-14T04:45:37.041Z,44.63
2018-12-14T04:48:05.157Z,44.63
2018-12-14T04:50:33.548Z,47.33
2018-12-14T04:53:01.710Z,47.43
2018-12-14T04:55:29.782Z,41.70
2018-12-14T04:57:58.064Z,39.73
2018-12-14T05:00:26.357Z,41.37
2018-12-14T05:02:54.429Z,40.43
2018-12-14T05:05:22.799Z,41.60
2018-12-14T05:07:50.861Z,41.33
2018-12-14T05:10:18.927Z,40.37
2018-12-14T05:12:47.055Z,41.30
2018-12-14T05:15:15.261Z,41.53
2018-12-14T05:17:43.464Z,38.20
2018-12-14T05:20:11.810Z,41.63
2018-12-14T05:22:39.826Z,42.20
2018-12-14T05:25:08.003Z,45.90
2018-12-14T05:27:36.221Z,38.63
2018-12-14T05:30:05.353Z,40.50
2018-12-14T05:32:33.398Z,40.57
2018-12-14T05:35:01.472Z,39.60
2018-12-14T05:37:30.302Z,38.67
2018-12-14T05:39:58.417Z,36.23
2018-12-14T05:42:26.542Z,37.90
2018-12-14T05:44:54.616Z,38.43
2018-12-14T05:47:23.124Z,35.37
2018-12-14T05:50:01.110Z,41.43
2018-12-14T05:52:29.702Z,40.30
2018-12-14T05:54:57.817Z,36.93
2018-12-14T05:57:25.945Z,38.23
2018-12-14T05:59:54.094Z,43.67
2018-12-14T06:02:22.296Z,41.73
2018-12-14T06:04:50.408Z,39.83
2018-12-14T06:07:18.520Z,40.30
2018-12-14T06:09:46.575Z,38.33
2018-12-14T06:12:14.746Z,40.50
2018-12-14T06:14:42.851Z,38.23
2018-12-14T06:17:10.954Z,41.70
2018-12-14T06:19:39.080Z,40.43
2018-12-14T06:22:07.150Z,45.37
2018-12-14T06:24:35.402Z,42.57
2018-12-14T06:27:03.817Z,41.37
2018-12-14T06:29:32.503Z,47.40
2018-12-14T06:32:00.578Z,41.47
2018-12-14T06:34:29.678Z,41.23
2018-12-14T06:37:10.501Z,43.97
2018-12-14T06:42:35.473Z,45.03
2018-12-14T06:51:00.364Z,40.60
2018-12-14T06:59:21.431Z,47.13
2018-12-14T07:01:49.562Z,48.07
2018-12-14T07:04:17.645Z,48.50
2018-12-14T07:06:46.134Z,45.40
2018-12-14T07:09:18.397Z,48.87
2018-12-14T07:11:46.604Z,49.97
2018-12-14T07:14:14.770Z,51.00
2018-12-14T07:16:43.304Z,46.20
2018-12-14T07:19:11.458Z,61.15
2018-12-14T09:22:13.448Z,38.13
2018-12-14T10:11:55.107Z,42.67
2018-12-14T10:14:30.366Z,37.90
2018-12-14T10:17:08.626Z,39.77
2018-12-14T10:22:42.798Z,37.63
2018-12-14T10:25:19.429Z,39.57
2018-12-14T10:28:01.115Z,36.33
2018-12-14T11:58:26.226Z,34.17
2018-12-14T12:01:03.319Z,33.17
2018-12-14T12:03:44.237Z,30.43
2018-12-14T12:06:18.458Z,29.47
2018-12-14T12:09:02.570Z,31.23
2018-12-14T12:11:30.898Z,31.17
2018-12-14T12:14:10.914Z,34.83
2018-12-14T12:16:49.206Z,30.97
2018-12-14T12:22:17.940Z,33.57
2018-12-14T12:30:47.385Z,30.90
2018-12-14T12:33:18.801Z,32.17
2018-12-14T12:36:00.838Z,32.50
2018-12-14T12:41:31.015Z,30.90
2018-12-14T12:50:03.403Z,29.13
2018-12-14T12:52:42.612Z,27.73
2018-12-14T12:55:16.616Z,34.57
2018-12-14T12:57:50.760Z,29.50
2018-12-14T13:08:59.277Z,31.13
2018-12-14T13:11:28.333Z,30.77
2018-12-14T13:16:54.820Z,31.43
2018-12-14T13:19:39.144Z,30.63
2018-12-14T13:22:08.047Z,31.10
2018-12-14T13:24:36.386Z,28.50
2018-12-14T13:27:20.230Z,30.23
2018-12-14T13:29:46.879Z,31.90
2018-12-14T13:32:27.331Z,30.80
2018-12-14T13:34:55.982Z,28.53
2018-12-14T13:37:38.318Z,29.67
2018-12-14T13:43:13.474Z,29.13
2018-12-14T13:45:53.084Z,29.73
2018-12-14T13:48:31.481Z,28.03
2018-12-14T13:51:11.999Z,29.13
2018-12-14T13:53:44.265Z,26.07
2018-12-14T13:56:24.590Z,29.87
2018-12-14T13:59:02.355Z,30.43
2018-12-14T14:01:31.689Z,26.60
2018-12-14T14:04:08.354Z,25.90
2018-12-14T14:06:36.615Z,27.80
2018-12-14T14:09:08.681Z,26.20
2018-12-14T14:11:45.173Z,26.83
2018-12-14T14:14:17.234Z,28.40
2018-12-14T14:16:46.627Z,24.97
2018-12-14T14:19:24.034Z,28.10
2018-12-14T14:24:38.257Z,27.47
2018-12-14T14:27:20.421Z,26.27
2018-12-14T14:32:45.504Z,26.17
2018-12-14T14:35:13.693Z,26.60
2018-12-14T14:37:41.893Z,27.53
2018-12-14T14:46:17.187Z,24.20
2018-12-14T14:48:45.530Z,25.47
2018-12-14T14:51:14.005Z,24.03
2018-12-14T14:53:42.264Z,26.63
2018-12-14T14:59:19.678Z,27.70
2018-12-14T15:01:54.819Z,26.07
2018-12-14T15:04:31.982Z,23.63
2018-12-14T15:07:10.024Z,24.83
2018-12-14T15:09:47.747Z,25.60
2018-12-14T15:12:26.299Z,26.47
2018-12-14T15:15:06.798Z,28.30
2018-12-14T15:23:32.728Z,27.17
2018-12-14T15:26:10.614Z,29.47
2018-12-14T15:31:44.993Z,26.33
2018-12-14T15:57:41.533Z,26.13
2018-12-14T16:00:16.401Z,26.50
2018-12-14T16:02:53.590Z,23.90
2018-12-14T16:05:21.875Z,25.67
2018-12-14T16:07:57.951Z,25.87
2018-12-14T16:13:23.546Z,28.00
2018-12-14T16:15:51.796Z,28.93
2018-12-14T16:18:22.262Z,23.70
2018-12-14T16:20:50.436Z,25.47
2018-12-14T16:23:19.414Z,27.97
2018-12-14T16:25:47.520Z,26.73
2018-12-14T16:28:16.044Z,28.27
2018-12-14T16:30:44.222Z,26.70
2018-12-14T16:33:12.474Z,28.10
2018-12-14T16:38:38.102Z,27.20
2018-12-14T16:41:06.421Z,27.10
2018-12-14T16:43:34.606Z,25.07
2018-12-14T16:46:03.090Z,29.27
2018-12-14T16:48:31.730Z,27.80
2018-12-14T16:51:14.540Z,29.17
2018-12-14T16:56:54.397Z,30.57
2018-12-14T17:02:35.867Z,30.13
2018-12-14T17:05:09.804Z,29.60
2018-12-14T17:10:44.343Z,29.63
2018-12-14T17:13:25.583Z,28.30
2018-12-14T17:36:33.928Z,26.13
2018-12-14T17:42:05.641Z,29.67
2018-12-14T17:44:44.101Z,28.83
2018-12-14T17:50:12.349Z,29.07
2018-12-14T17:52:47.759Z,29.90
2018-12-14T17:55:28.674Z,29.27
2018-12-14T17:58:07.599Z,31.73
2018-12-14T18:00:46.082Z,31.27
2018-12-14T18:06:22.701Z,28.03
2018-12-14T18:08:59.172Z,31.07
2018-12-14T18:11:44.652Z,31.80
2018-12-14T18:17:10.149Z,29.07
2018-12-14T18:19:44.458Z,31.40
2018-12-14T18:22:12.674Z,27.77
2018-12-14T18:24:40.791Z,25.50
2018-12-14T18:27:09.000Z,29.23
2018-12-14T18:29:37.187Z,28.10
2018-12-14T18:32:05.305Z,30.77
2018-12-14T18:34:33.451Z,31.23
2018-12-14T18:37:01.740Z,29.87
2018-12-14T18:39:29.927Z,32.47
2018-12-14T18:41:58.046Z,29.07
2018-12-14T18:44:26.203Z,27.80
2018-12-14T18:46:54.419Z,31.17
2018-12-14T18:49:22.687Z,34.30
2018-12-14T18:51:51.052Z,33.30
2018-12-14T18:54:19.112Z,34.17
2018-12-14T18:56:56.818Z,37.23
2018-12-14T18:59:25.135Z,34.33
2018-12-14T19:01:53.325Z,35.13
2018-12-14T19:04:21.387Z,33.13
2018-12-14T19:06:49.499Z,40.10
2018-12-14T19:09:17.671Z,39.70
2018-12-14T19:11:45.913Z,37.70
2018-12-14T19:14:14.034Z,37.77
2018-12-14T19:16:42.151Z,36.43
2018-12-14T19:19:10.246Z,42.13
2018-12-14T19:21:38.348Z,37.17
2018-12-14T19:24:06.465Z,38.13
2018-12-14T19:26:34.701Z,35.73
2018-12-14T19:29:02.779Z,36.00
2018-12-14T19:31:30.951Z,39.27
2018-12-14T19:33:59.087Z,38.07
2018-12-14T19:36:27.330Z,37.17
2018-12-14T19:38:55.642Z,37.93
2018-12-14T19:41:23.775Z,40.57
2018-12-14T19:43:51.878Z,36.97
2018-12-14T19:46:20.003Z,37.40
2018-12-14T19:48:48.435Z,34.17
2018-12-14T19:51:16.565Z,33.30
2018-12-14T19:53:44.670Z,39.63
2018-12-14T19:56:12.798Z,34.33
2018-12-14T19:58:40.870Z,35.87
2018-12-14T20:01:08.947Z,37.50
2018-12-14T20:03:37.121Z,35.40
2018-12-14T20:06:05.250Z,36.60
2018-12-14T20:08:33.350Z,34.83
2018-12-14T20:11:01.606Z,37.43
2018-12-14T20:13:29.717Z,38.07
2018-12-14T20:15:57.952Z,34.40
2018-12-14T20:18:26.195Z,39.20
2018-12-14T20:20:54.358Z,38.20
2018-12-14T20:23:22.596Z,36.90
2018-12-14T20:25:51.021Z,35.97
2018-12-14T20:28:19.184Z,36.00
2018-12-14T20:30:47.334Z,37.87
2018-12-14T20:33:15.789Z,34.77
2018-12-14T20:35:43.882Z,32.90
2018-12-14T20:38:12.168Z,34.00
2018-12-14T20:40:40.380Z,33.37
2018-12-14T20:43:08.470Z,31.93
2018-12-14T20:45:36.844Z,33.40
2018-12-14T20:48:05.257Z,31.17
2018-12-14T20:50:33.319Z,31.37
2018-12-14T20:53:01.395Z,32.77
2018-12-14T20:55:29.510Z,35.70
2018-12-14T20:57:57.604Z,35.07
2018-12-14T21:00:25.909Z,33.53
2018-12-14T21:02:54.066Z,33.37
2018-12-14T21:05:22.242Z,31.67
2018-12-14T21:07:50.547Z,33.40
2018-12-14T21:10:19.249Z,30.50
2018-12-14T21:12:47.344Z,32.40
2018-12-14T21:15:15.582Z,31.27
2018-12-14T21:17:44.192Z,29.43
2018-12-14T21:20:12.757Z,30.67
2018-12-14T21:22:41.356Z,28.90
2018-12-14T21:25:11.922Z,31.00
2018-12-14T21:27:40.062Z,31.23
2018-12-14T21:30:10.033Z,29.97
2018-12-14T21:32:38.230Z,29.97
2018-12-14T21:35:06.446Z,27.37
2018-12-14T21:37:46.826Z,25.17
2018-12-14T21:43:08.978Z,26.13
2018-12-14T21:45:47.358Z,25.90
2018-12-14T21:48:23.602Z,28.23
2018-12-14T21:51:04.295Z,31.50
2018-12-14T21:53:42.665Z,30.73
2018-12-14T21:59:23.486Z,28.23
2018-12-14T22:02:03.708Z,28.90
2018-12-14T22:04:43.868Z,27.23
2018-12-14T22:07:20.127Z,29.70
2018-12-14T22:18:22.017Z,29.30
2018-12-14T22:20:51.872Z,26.40
2018-12-14T22:23:20.265Z,28.67
2018-12-14T22:25:48.497Z,27.97
2018-12-14T22:28:16.817Z,31.03
2018-12-14T22:30:52.217Z,28.37
2018-12-14T22:33:20.636Z,29.23
2018-12-14T22:35:56.938Z,29.90
2018-12-14T22:41:21.924Z,28.43
2018-12-14T22:46:50.453Z,28.93
2018-12-14T22:52:30.498Z,31.07
2018-12-14T22:58:06.643Z,31.43
2018-12-14T23:00:37.250Z,31.33
2018-12-14T23:06:01.373Z,27.50
2018-12-14T23:08:39.726Z,29.93
2018-12-14T23:19:50.989Z,30.23
2018-12-14T23:25:25.563Z,29.57
2018-12-14T23:31:01.145Z,29.80
2018-12-14T23:33:35.714Z,31.33
2018-12-14T23:44:48.800Z,24.73
2018-12-14T23:50:22.604Z,26.37
2018-12-14T23:52:50.970Z,28.97
2018-12-14T23:55:32.268Z,26.30
